sensor_id;sensor_type;location;lat;lon;timestamp;P1;durP1;ratioP1;P2;durP2;ratioP2
20890;SDS011;10605;52.968;8.844;2023-07-31T00:00:31;8.25;;;3.25;;
20890;SDS011;10605;52.968;8.844;2023-07-31T00:02:59;10.27;;;3.35;;
20890;SDS011;10605;52.968;8.844;2023-07-31T00:05:39;9.35;;;3.72;;
20890;SDS011;10605;52.968;8.844;2023-07-31T00:08:04;10.55;;;3.33;;
20890;SDS011;10605;52.968;8.844;2023-07-31T00:10:33;6.97;;;4.03;;
20890;SDS011;10605;52.968;8.844;2023-07-31T00:12:59;8.30;;;2.83;;
20890;SDS011;10605;52.968;8.844;2023-07-31T00:15:32;7.53;;;3.28;;
20890;SDS011;10605;52.968;8.844;2023-07-31T00:17:58;4.97;;;2.47;;
20890;SDS011;10605;52.968;8.844;2023-07-31T00:20:27;5.47;;;2.67;;
20890;SDS011;10605;52.968;8.844;2023-07-31T00:22:53;9.48;;;3.13;;
20890;SDS011;10605;52.968;8.844;2023-07-31T00:25:18;5.47;;;2.83;;
20890;SDS011;10605;52.968;8.844;2023-07-31T00:27:44;5.63;;;2.70;;
20890;SDS011;10605;52.968;8.844;2023-07-31T00:30:12;7.22;;;2.72;;
20890;SDS011;10605;52.968;8.844;2023-07-31T00:32:41;14.20;;;3.00;;
20890;SDS011;10605;52.968;8.844;2023-07-31T00:35:09;4.15;;;2.30;;
20890;SDS011;10605;52.968;8.844;2023-07-31T00:37:35;4.65;;;2.70;;
20890;SDS011;10605;52.968;8.844;2023-07-31T00:40:03;3.70;;;2.33;;
20890;SDS011;10605;52.968;8.844;2023-07-31T00:42:48;6.47;;;2.58;;
20890;SDS011;10605;52.968;8.844;2023-07-31T00:45:14;3.38;;;2.17;;
20890;SDS011;10605;52.968;8.844;2023-07-31T00:47:39;7.57;;;2.35;;
20890;SDS011;10605;52.968;8.844;2023-07-31T00:50:11;3.92;;;2.45;;
20890;SDS011;10605;52.968;8.844;2023-07-31T00:52:42;5.18;;;2.45;;
20890;SDS011;10605;52.968;8.844;2023-07-31T00:55:10;2.88;;;2.30;;
20890;SDS011;10605;52.968;8.844;2023-07-31T00:57:41;6.18;;;2.20;;
20890;SDS011;10605;52.968;8.844;2023-07-31T01:00:09;3.30;;;2.22;;
20890;SDS011;10605;52.968;8.844;2023-07-31T01:02:38;4.40;;;2.17;;
20890;SDS011;10605;52.968;8.844;2023-07-31T01:05:12;4.03;;;2.30;;
20890;SDS011;10605;52.968;8.844;2023-07-31T01:10:24;5.07;;;2.53;;
20890;SDS011;10605;52.968;8.844;2023-07-31T01:12:59;5.68;;;2.95;;
20890;SDS011;10605;52.968;8.844;2023-07-31T01:15:25;5.57;;;2.40;;
20890;SDS011;10605;52.968;8.844;2023-07-31T01:17:52;7.43;;;2.60;;
20890;SDS011;10605;52.968;8.844;2023-07-31T01:20:26;4.65;;;2.10;;
20890;SDS011;10605;52.968;8.844;2023-07-31T01:28:14;3.45;;;2.10;;
20890;SDS011;10605;52.968;8.844;2023-07-31T01:30:52;2.97;;;2.33;;
20890;SDS011;10605;52.968;8.844;2023-07-31T01:33:22;2.33;;;1.67;;
20890;SDS011;10605;52.968;8.844;2023-07-31T01:35:50;2.05;;;1.85;;
20890;SDS011;10605;52.968;8.844;2023-07-31T01:38:27;2.33;;;2.10;;
20890;SDS011;10605;52.968;8.844;2023-07-31T01:43:50;4.55;;;2.03;;
20890;SDS011;10605;52.968;8.844;2023-07-31T01:46:15;3.13;;;2.30;;
20890;SDS011;10605;52.968;8.844;2023-07-31T01:48:41;2.15;;;1.90;;
20890;SDS011;10605;52.968;8.844;2023-07-31T01:51:07;2.50;;;2.00;;
20890;SDS011;10605;52.968;8.844;2023-07-31T01:53:41;3.88;;;2.35;;
20890;SDS011;10605;52.968;8.844;2023-07-31T01:56:12;3.85;;;2.60;;
20890;SDS011;10605;52.968;8.844;2023-07-31T01:58:49;4.50;;;2.53;;
20890;SDS011;10605;52.968;8.844;2023-07-31T02:01:25;2.53;;;2.20;;
20890;SDS011;10605;52.968;8.844;2023-07-31T02:03:53;4.70;;;2.40;;
20890;SDS011;10605;52.968;8.844;2023-07-31T02:06:28;6.70;;;2.72;;
20890;SDS011;10605;52.968;8.844;2023-07-31T02:08:57;2.65;;;2.45;;
20890;SDS011;10605;52.968;8.844;2023-07-31T02:11:25;2.83;;;2.47;;
20890;SDS011;10605;52.968;8.844;2023-07-31T02:14:06;2.90;;;2.70;;
20890;SDS011;10605;52.968;8.844;2023-07-31T02:16:51;6.30;;;2.30;;
20890;SDS011;10605;52.968;8.844;2023-07-31T02:19:27;2.50;;;2.30;;
20890;SDS011;10605;52.968;8.844;2023-07-31T02:21:55;2.90;;;2.70;;
20890;SDS011;10605;52.968;8.844;2023-07-31T02:24:26;4.25;;;3.08;;
20890;SDS011;10605;52.968;8.844;2023-07-31T02:26:54;3.25;;;3.00;;
20890;SDS011;10605;52.968;8.844;2023-07-31T02:29:20;2.92;;;2.47;;
20890;SDS011;10605;52.968;8.844;2023-07-31T02:31:53;3.53;;;2.70;;
20890;SDS011;10605;52.968;8.844;2023-07-31T02:34:39;4.30;;;2.40;;
20890;SDS011;10605;52.968;8.844;2023-07-31T02:37:12;3.92;;;3.10;;
20890;SDS011;10605;52.968;8.844;2023-07-31T02:39:40;3.15;;;2.63;;
20890;SDS011;10605;52.968;8.844;2023-07-31T02:42:06;3.70;;;2.90;;
20890;SDS011;10605;52.968;8.844;2023-07-31T02:44:35;3.97;;;3.00;;
20890;SDS011;10605;52.968;8.844;2023-07-31T02:47:00;3.05;;;2.67;;
20890;SDS011;10605;52.968;8.844;2023-07-31T02:49:28;3.17;;;2.50;;
20890;SDS011;10605;52.968;8.844;2023-07-31T02:54:42;3.70;;;2.67;;
20890;SDS011;10605;52.968;8.844;2023-07-31T02:57:08;2.80;;;2.60;;
20890;SDS011;10605;52.968;8.844;2023-07-31T02:59:34;6.03;;;2.78;;
20890;SDS011;10605;52.968;8.844;2023-07-31T03:02:08;5.28;;;3.03;;
20890;SDS011;10605;52.968;8.844;2023-07-31T03:04:33;2.85;;;2.65;;
20890;SDS011;10605;52.968;8.844;2023-07-31T03:09:45;3.45;;;2.50;;
20890;SDS011;10605;52.968;8.844;2023-07-31T03:12:12;3.78;;;2.88;;
20890;SDS011;10605;52.968;8.844;2023-07-31T03:14:40;2.70;;;2.50;;
20890;SDS011;10605;52.968;8.844;2023-07-31T03:17:06;3.17;;;2.67;;
20890;SDS011;10605;52.968;8.844;2023-07-31T03:19:32;3.58;;;2.90;;
20890;SDS011;10605;52.968;8.844;2023-07-31T03:22:00;4.05;;;2.60;;
20890;SDS011;10605;52.968;8.844;2023-07-31T03:24:49;2.80;;;2.60;;
20890;SDS011;10605;52.968;8.844;2023-07-31T03:27:24;3.80;;;2.63;;
20890;SDS011;10605;52.968;8.844;2023-07-31T03:29:52;4.25;;;2.70;;
20890;SDS011;10605;52.968;8.844;2023-07-31T03:32:26;2.42;;;2.33;;
20890;SDS011;10605;52.968;8.844;2023-07-31T03:34:59;2.95;;;2.75;;
20890;SDS011;10605;52.968;8.844;2023-07-31T03:37:27;3.60;;;3.15;;
20890;SDS011;10605;52.968;8.844;2023-07-31T03:39:58;3.22;;;3.00;;
20890;SDS011;10605;52.968;8.844;2023-07-31T03:42:29;3.58;;;3.28;;
20890;SDS011;10605;52.968;8.844;2023-07-31T03:44:57;4.00;;;3.15;;
20890;SDS011;10605;52.968;8.844;2023-07-31T03:47:28;5.90;;;4.25;;
20890;SDS011;10605;52.968;8.844;2023-07-31T03:49:58;5.00;;;3.90;;
20890;SDS011;10605;52.968;8.844;2023-07-31T03:52:26;5.47;;;3.80;;
20890;SDS011;10605;52.968;8.844;2023-07-31T03:54:54;4.20;;;3.60;;
20890;SDS011;10605;52.968;8.844;2023-07-31T03:57:25;4.80;;;4.15;;
20890;SDS011;10605;52.968;8.844;2023-07-31T03:59:53;5.38;;;4.47;;
20890;SDS011;10605;52.968;8.844;2023-07-31T04:02:19;4.53;;;4.20;;
20890;SDS011;10605;52.968;8.844;2023-07-31T04:04:47;5.05;;;4.65;;
20890;SDS011;10605;52.968;8.844;2023-07-31T04:08:01;5.85;;;5.35;;
20890;SDS011;10605;52.968;8.844;2023-07-31T04:10:33;5.97;;;5.38;;
20890;SDS011;10605;52.968;8.844;2023-07-31T04:13:01;6.35;;;5.93;;
20890;SDS011;10605;52.968;8.844;2023-07-31T04:15:28;6.28;;;5.80;;
20890;SDS011;10605;52.968;8.844;2023-07-31T04:17:56;5.65;;;5.15;;
20890;SDS011;10605;52.968;8.844;2023-07-31T04:20:25;5.90;;;5.03;;
20890;SDS011;10605;52.968;8.844;2023-07-31T04:22:56;5.40;;;5.10;;
20890;SDS011;10605;52.968;8.844;2023-07-31T04:25:27;4.28;;;3.92;;
20890;SDS011;10605;52.968;8.844;2023-07-31T04:27:57;4.53;;;3.95;;
20890;SDS011;10605;52.968;8.844;2023-07-31T04:30:23;4.03;;;3.72;;
20890;SDS011;10605;52.968;8.844;2023-07-31T04:32:57;3.45;;;3.25;;
20890;SDS011;10605;52.968;8.844;2023-07-31T04:35:25;3.60;;;3.30;;
20890;SDS011;10605;52.968;8.844;2023-07-31T04:37:54;3.10;;;2.90;;
20890;SDS011;10605;52.968;8.844;2023-07-31T04:40:35;3.17;;;2.95;;
20890;SDS011;10605;52.968;8.844;2023-07-31T04:43:23;3.17;;;2.28;;
20890;SDS011;10605;52.968;8.844;2023-07-31T04:45:56;2.47;;;2.28;;
20890;SDS011;10605;52.968;8.844;2023-07-31T04:48:23;2.63;;;2.42;;
20890;SDS011;10605;52.968;8.844;2023-07-31T04:50:53;2.15;;;1.98;;
20890;SDS011;10605;52.968;8.844;2023-07-31T04:53:19;1.52;;;1.48;;
20890;SDS011;10605;52.968;8.844;2023-07-31T04:55:50;2.92;;;1.90;;
20890;SDS011;10605;52.968;8.844;2023-07-31T04:58:26;2.08;;;1.80;;
20890;SDS011;10605;52.968;8.844;2023-07-31T05:00:54;1.58;;;1.48;;
20890;SDS011;10605;52.968;8.844;2023-07-31T05:03:20;1.92;;;1.83;;
20890;SDS011;10605;52.968;8.844;2023-07-31T05:05:49;2.33;;;2.03;;
20890;SDS011;10605;52.968;8.844;2023-07-31T05:08:23;1.88;;;1.77;;
20890;SDS011;10605;52.968;8.844;2023-07-31T05:10:51;2.28;;;2.08;;
20890;SDS011;10605;52.968;8.844;2023-07-31T05:13:17;2.33;;;1.98;;
20890;SDS011;10605;52.968;8.844;2023-07-31T05:15:45;2.67;;;2.47;;
20890;SDS011;10605;52.968;8.844;2023-07-31T05:18:26;1.67;;;1.58;;
20890;SDS011;10605;52.968;8.844;2023-07-31T05:20:53;1.70;;;1.60;;
20890;SDS011;10605;52.968;8.844;2023-07-31T05:23:19;2.25;;;1.30;;
20890;SDS011;10605;52.968;8.844;2023-07-31T05:25:45;2.17;;;1.60;;
20890;SDS011;10605;52.968;8.844;2023-07-31T05:28:13;1.88;;;1.50;;
20890;SDS011;10605;52.968;8.844;2023-07-31T05:30:42;2.17;;;1.90;;
20890;SDS011;10605;52.968;8.844;2023-07-31T05:33:08;1.73;;;1.63;;
20890;SDS011;10605;52.968;8.844;2023-07-31T05:35:33;2.40;;;1.90;;
20890;SDS011;10605;52.968;8.844;2023-07-31T05:37:59;1.90;;;1.60;;
20890;SDS011;10605;52.968;8.844;2023-07-31T05:40:25;3.40;;;1.90;;
20890;SDS011;10605;52.968;8.844;2023-07-31T05:42:54;1.92;;;1.73;;
20890;SDS011;10605;52.968;8.844;2023-07-31T05:45:23;2.22;;;1.90;;
20890;SDS011;10605;52.968;8.844;2023-07-31T05:47:48;1.60;;;1.50;;
20890;SDS011;10605;52.968;8.844;2023-07-31T05:50:21;1.40;;;1.30;;
20890;SDS011;10605;52.968;8.844;2023-07-31T05:52:52;1.50;;;1.40;;
20890;SDS011;10605;52.968;8.844;2023-07-31T05:55:25;1.15;;;1.15;;
20890;SDS011;10605;52.968;8.844;2023-07-31T05:57:54;1.52;;;1.42;;
20890;SDS011;10605;52.968;8.844;2023-07-31T06:00:19;1.30;;;1.30;;
20890;SDS011;10605;52.968;8.844;2023-07-31T06:03:06;1.42;;;1.20;;
20890;SDS011;10605;52.968;8.844;2023-07-31T06:05:37;1.25;;;1.00;;
20890;SDS011;10605;52.968;8.844;2023-07-31T06:08:03;1.10;;;1.08;;
20890;SDS011;10605;52.968;8.844;2023-07-31T06:10:34;1.05;;;0.98;;
20890;SDS011;10605;52.968;8.844;2023-07-31T06:13:00;0.88;;;0.88;;
20890;SDS011;10605;52.968;8.844;2023-07-31T06:15:26;3.40;;;1.00;;
20890;SDS011;10605;52.968;8.844;2023-07-31T06:17:54;0.60;;;0.60;;
20890;SDS011;10605;52.968;8.844;2023-07-31T06:20:19;0.85;;;0.85;;
20890;SDS011;10605;52.968;8.844;2023-07-31T06:22:45;2.35;;;0.90;;
20890;SDS011;10605;52.968;8.844;2023-07-31T06:25:14;0.95;;;0.80;;
20890;SDS011;10605;52.968;8.844;2023-07-31T06:27:42;0.65;;;0.65;;
20890;SDS011;10605;52.968;8.844;2023-07-31T06:30:08;0.60;;;0.60;;
20890;SDS011;10605;52.968;8.844;2023-07-31T06:32:36;1.00;;;0.45;;
20890;SDS011;10605;52.968;8.844;2023-07-31T06:35:08;1.67;;;0.50;;
20890;SDS011;10605;52.968;8.844;2023-07-31T06:37:34;0.25;;;0.20;;
20890;SDS011;10605;52.968;8.844;2023-07-31T06:40:09;1.27;;;0.43;;
20890;SDS011;10605;52.968;8.844;2023-07-31T06:42:38;0.68;;;0.40;;
20890;SDS011;10605;52.968;8.844;2023-07-31T06:45:06;1.25;;;0.40;;
20890;SDS011;10605;52.968;8.844;2023-07-31T06:47:37;0.50;;;0.40;;
20890;SDS011;10605;52.968;8.844;2023-07-31T06:50:10;0.40;;;0.40;;
20890;SDS011;10605;52.968;8.844;2023-07-31T06:52:39;1.13;;;0.40;;
20890;SDS011;10605;52.968;8.844;2023-07-31T06:55:17;0.50;;;0.50;;
20890;SDS011;10605;52.968;8.844;2023-07-31T06:57:47;0.63;;;0.57;;
20890;SDS011;10605;52.968;8.844;2023-07-31T07:00:14;0.93;;;0.50;;
20890;SDS011;10605;52.968;8.844;2023-07-31T07:02:42;1.05;;;0.70;;
20890;SDS011;10605;52.968;8.844;2023-07-31T07:05:08;2.78;;;0.90;;
20890;SDS011;10605;52.968;8.844;2023-07-31T07:07:37;1.25;;;0.77;;
20890;SDS011;10605;52.968;8.844;2023-07-31T07:10:03;2.60;;;1.13;;
20890;SDS011;10605;52.968;8.844;2023-07-31T07:12:30;1.08;;;0.98;;
20890;SDS011;10605;52.968;8.844;2023-07-31T07:15:00;1.58;;;1.40;;
20890;SDS011;10605;52.968;8.844;2023-07-31T07:17:34;1.63;;;1.48;;
20890;SDS011;10605;52.968;8.844;2023-07-31T07:20:16;2.38;;;1.60;;
20890;SDS011;10605;52.968;8.844;2023-07-31T07:22:52;2.30;;;1.90;;
20890;SDS011;10605;52.968;8.844;2023-07-31T07:25:22;3.90;;;2.30;;
20890;SDS011;10605;52.968;8.844;2023-07-31T07:27:57;3.20;;;2.55;;
20890;SDS011;10605;52.968;8.844;2023-07-31T07:30:32;3.33;;;3.10;;
20890;SDS011;10605;52.968;8.844;2023-07-31T07:33:03;3.15;;;2.70;;
20890;SDS011;10605;52.968;8.844;2023-07-31T07:36:09;3.13;;;2.80;;
20890;SDS011;10605;52.968;8.844;2023-07-31T07:39:03;4.07;;;2.85;;
20890;SDS011;10605;52.968;8.844;2023-07-31T07:41:52;4.90;;;3.65;;
20890;SDS011;10605;52.968;8.844;2023-07-31T07:48:16;4.25;;;3.85;;
20890;SDS011;10605;52.968;8.844;2023-07-31T07:50:48;6.53;;;4.78;;
20890;SDS011;10605;52.968;8.844;2023-07-31T07:53:22;8.07;;;5.18;;
20890;SDS011;10605;52.968;8.844;2023-07-31T07:55:57;9.73;;;5.20;;
20890;SDS011;10605;52.968;8.844;2023-07-31T08:01:54;14.10;;;5.90;;
20890;SDS011;10605;52.968;8.844;2023-07-31T08:07:44;13.25;;;6.88;;
20890;SDS011;10605;52.968;8.844;2023-07-31T08:10:32;12.98;;;7.55;;
20890;SDS011;10605;52.968;8.844;2023-07-31T08:13:23;16.30;;;7.78;;
20890;SDS011;10605;52.968;8.844;2023-07-31T08:15:54;14.20;;;7.57;;
20890;SDS011;10605;52.968;8.844;2023-07-31T08:18:27;17.75;;;8.40;;
20890;SDS011;10605;52.968;8.844;2023-07-31T08:20:58;11.63;;;7.32;;
20890;SDS011;10605;52.968;8.844;2023-07-31T08:23:24;15.90;;;7.60;;
20890;SDS011;10605;52.968;8.844;2023-07-31T08:25:49;20.25;;;7.85;;
20890;SDS011;10605;52.968;8.844;2023-07-31T08:28:15;16.33;;;6.95;;
20890;SDS011;10605;52.968;8.844;2023-07-31T08:30:41;12.93;;;7.50;;
20890;SDS011;10605;52.968;8.844;2023-07-31T08:33:07;12.98;;;7.55;;
20890;SDS011;10605;52.968;8.844;2023-07-31T08:35:33;19.42;;;7.78;;
20890;SDS011;10605;52.968;8.844;2023-07-31T08:37:59;15.85;;;8.48;;
20890;SDS011;10605;52.968;8.844;2023-07-31T08:40:24;16.40;;;7.50;;
20890;SDS011;10605;52.968;8.844;2023-07-31T08:42:53;17.95;;;7.35;;
20890;SDS011;10605;52.968;8.844;2023-07-31T08:45:19;18.27;;;7.93;;
20890;SDS011;10605;52.968;8.844;2023-07-31T08:47:46;16.00;;;6.60;;
20890;SDS011;10605;52.968;8.844;2023-07-31T08:50:16;15.20;;;6.57;;
20890;SDS011;10605;52.968;8.844;2023-07-31T08:52:43;14.70;;;6.35;;
20890;SDS011;10605;52.968;8.844;2023-07-31T08:55:10;15.82;;;6.20;;
20890;SDS011;10605;52.968;8.844;2023-07-31T08:57:37;14.50;;;5.85;;
20890;SDS011;10605;52.968;8.844;2023-07-31T09:00:06;13.98;;;6.55;;
20890;SDS011;10605;52.968;8.844;2023-07-31T09:02:45;12.48;;;5.55;;
20890;SDS011;10605;52.968;8.844;2023-07-31T09:05:15;6.82;;;4.57;;
20890;SDS011;10605;52.968;8.844;2023-07-31T09:07:42;11.38;;;5.22;;
20890;SDS011;10605;52.968;8.844;2023-07-31T09:10:11;7.63;;;4.88;;
20890;SDS011;10605;52.968;8.844;2023-07-31T09:12:37;8.10;;;5.03;;
20890;SDS011;10605;52.968;8.844;2023-07-31T09:15:04;10.75;;;4.72;;
20890;SDS011;10605;52.968;8.844;2023-07-31T09:17:30;8.30;;;4.07;;
20890;SDS011;10605;52.968;8.844;2023-07-31T09:19:57;10.32;;;4.45;;
20890;SDS011;10605;52.968;8.844;2023-07-31T09:22:37;8.55;;;4.40;;
20890;SDS011;10605;52.968;8.844;2023-07-31T09:28:06;6.43;;;3.78;;
20890;SDS011;10605;52.968;8.844;2023-07-31T09:30:49;6.60;;;3.65;;
20890;SDS011;10605;52.968;8.844;2023-07-31T09:33:15;10.68;;;3.95;;
20890;SDS011;10605;52.968;8.844;2023-07-31T09:35:44;5.57;;;3.75;;
20890;SDS011;10605;52.968;8.844;2023-07-31T09:38:10;5.32;;;3.10;;
20890;SDS011;10605;52.968;8.844;2023-07-31T09:40:39;10.38;;;3.72;;
20890;SDS011;10605;52.968;8.844;2023-07-31T09:43:07;4.97;;;2.92;;
20890;SDS011;10605;52.968;8.844;2023-07-31T09:45:36;5.97;;;3.35;;
20890;SDS011;10605;52.968;8.844;2023-07-31T09:48:03;7.15;;;3.63;;
20890;SDS011;10605;52.968;8.844;2023-07-31T09:50:39;3.55;;;2.97;;
20890;SDS011;10605;52.968;8.844;2023-07-31T09:53:07;4.75;;;3.15;;
20890;SDS011;10605;52.968;8.844;2023-07-31T09:55:33;3.75;;;2.60;;
20890;SDS011;10605;52.968;8.844;2023-07-31T09:58:03;6.88;;;2.28;;
20890;SDS011;10605;52.968;8.844;2023-07-31T10:00:30;3.72;;;2.42;;
20890;SDS011;10605;52.968;8.844;2023-07-31T10:03:00;7.30;;;2.60;;
20890;SDS011;10605;52.968;8.844;2023-07-31T10:05:36;3.25;;;2.15;;
20890;SDS011;10605;52.968;8.844;2023-07-31T10:08:06;3.40;;;2.13;;
20890;SDS011;10605;52.968;8.844;2023-07-31T10:10:35;2.78;;;1.90;;
20890;SDS011;10605;52.968;8.844;2023-07-31T10:13:02;2.72;;;2.40;;
20890;SDS011;10605;52.968;8.844;2023-07-31T10:15:30;3.35;;;2.20;;
20890;SDS011;10605;52.968;8.844;2023-07-31T10:17:56;4.82;;;1.70;;
20890;SDS011;10605;52.968;8.844;2023-07-31T10:20:24;2.10;;;1.80;;
20890;SDS011;10605;52.968;8.844;2023-07-31T10:22:51;2.75;;;1.88;;
20890;SDS011;10605;52.968;8.844;2023-07-31T10:25:18;4.55;;;1.85;;
20890;SDS011;10605;52.968;8.844;2023-07-31T10:27:44;2.80;;;1.48;;
20890;SDS011;10605;52.968;8.844;2023-07-31T10:30:12;2.00;;;1.60;;
20890;SDS011;10605;52.968;8.844;2023-07-31T10:32:41;2.65;;;1.40;;
20890;SDS011;10605;52.968;8.844;2023-07-31T10:35:09;4.00;;;1.30;;
20890;SDS011;10605;52.968;8.844;2023-07-31T10:37:38;4.20;;;1.10;;
20890;SDS011;10605;52.968;8.844;2023-07-31T10:42:46;1.25;;;0.95;;
20890;SDS011;10605;52.968;8.844;2023-07-31T10:45:14;2.65;;;0.80;;
20890;SDS011;10605;52.968;8.844;2023-07-31T10:47:51;0.73;;;0.73;;
20890;SDS011;10605;52.968;8.844;2023-07-31T10:50:27;0.65;;;0.57;;
20890;SDS011;10605;52.968;8.844;2023-07-31T10:52:54;2.60;;;0.40;;
20890;SDS011;10605;52.968;8.844;2023-07-31T11:04:29;0.40;;;0.40;;
20890;SDS011;10605;52.968;8.844;2023-07-31T11:06:59;1.60;;;0.30;;
20890;SDS011;10605;52.968;8.844;2023-07-31T11:09:30;1.55;;;0.30;;
20890;SDS011;10605;52.968;8.844;2023-07-31T11:11:57;0.22;;;0.20;;
20890;SDS011;10605;52.968;8.844;2023-07-31T11:14:23;0.38;;;0.30;;
20890;SDS011;10605;52.968;8.844;2023-07-31T11:16:50;0.47;;;0.47;;
20890;SDS011;10605;52.968;8.844;2023-07-31T11:19:26;5.18;;;0.40;;
20890;SDS011;10605;52.968;8.844;2023-07-31T11:21:52;0.17;;;0.17;;
20890;SDS011;10605;52.968;8.844;2023-07-31T11:24:18;0.15;;;0.15;;
20890;SDS011;10605;52.968;8.844;2023-07-31T11:26:50;0.20;;;0.20;;
20890;SDS011;10605;52.968;8.844;2023-07-31T11:29:17;0.75;;;0.30;;
20890;SDS011;10605;52.968;8.844;2023-07-31T11:31:46;0.30;;;0.30;;
20890;SDS011;10605;52.968;8.844;2023-07-31T11:34:25;0.60;;;0.40;;
20890;SDS011;10605;52.968;8.844;2023-07-31T11:40:55;0.30;;;0.20;;
20890;SDS011;10605;52.968;8.844;2023-07-31T11:43:27;0.20;;;0.20;;
20890;SDS011;10605;52.968;8.844;2023-07-31T11:45:59;0.45;;;0.20;;
20890;SDS011;10605;52.968;8.844;2023-07-31T11:48:29;0.20;;;0.20;;
20890;SDS011;10605;52.968;8.844;2023-07-31T11:50:58;0.55;;;0.55;;
20890;SDS011;10605;52.968;8.844;2023-07-31T11:53:36;0.20;;;0.20;;
20890;SDS011;10605;52.968;8.844;2023-07-31T11:56:07;0.43;;;0.20;;
20890;SDS011;10605;52.968;8.844;2023-07-31T11:58:36;1.17;;;0.20;;
20890;SDS011;10605;52.968;8.844;2023-07-31T12:01:03;0.10;;;0.10;;
20890;SDS011;10605;52.968;8.844;2023-07-31T12:03:30;0.20;;;0.20;;
20890;SDS011;10605;52.968;8.844;2023-07-31T12:05:58;1.27;;;0.20;;
20890;SDS011;10605;52.968;8.844;2023-07-31T12:08:24;1.10;;;0.20;;
20890;SDS011;10605;52.968;8.844;2023-07-31T12:10:51;0.20;;;0.20;;
20890;SDS011;10605;52.968;8.844;2023-07-31T12:13:21;0.40;;;0.20;;
20890;SDS011;10605;52.968;8.844;2023-07-31T12:15:49;1.95;;;0.50;;
20890;SDS011;10605;52.968;8.844;2023-07-31T12:18:20;0.25;;;0.22;;
20890;SDS011;10605;52.968;8.844;2023-07-31T12:20:46;0.47;;;0.47;;
20890;SDS011;10605;52.968;8.844;2023-07-31T12:23:17;2.10;;;0.20;;
20890;SDS011;10605;52.968;8.844;2023-07-31T12:26:05;0.20;;;0.20;;
20890;SDS011;10605;52.968;8.844;2023-07-31T12:28:36;0.35;;;0.30;;
20890;SDS011;10605;52.968;8.844;2023-07-31T12:31:03;0.30;;;0.20;;
20890;SDS011;10605;52.968;8.844;2023-07-31T12:33:32;0.52;;;0.30;;
20890;SDS011;10605;52.968;8.844;2023-07-31T12:36:00;0.30;;;0.30;;
20890;SDS011;10605;52.968;8.844;2023-07-31T12:38:28;0.52;;;0.43;;
20890;SDS011;10605;52.968;8.844;2023-07-31T12:40:54;0.30;;;0.30;;
20890;SDS011;10605;52.968;8.844;2023-07-31T12:43:19;0.47;;;0.47;;
20890;SDS011;10605;52.968;8.844;2023-07-31T12:45:45;0.32;;;0.32;;
20890;SDS011;10605;52.968;8.844;2023-07-31T12:48:12;0.30;;;0.30;;
20890;SDS011;10605;52.968;8.844;2023-07-31T12:50:39;0.50;;;0.50;;
20890;SDS011;10605;52.968;8.844;2023-07-31T12:53:09;1.10;;;0.40;;
20890;SDS011;10605;52.968;8.844;2023-07-31T12:55:39;0.40;;;0.40;;
20890;SDS011;10605;52.968;8.844;2023-07-31T12:58:18;0.65;;;0.50;;
20890;SDS011;10605;52.968;8.844;2023-07-31T13:00:50;0.57;;;0.57;;
20890;SDS011;10605;52.968;8.844;2023-07-31T13:03:16;1.77;;;0.70;;
20890;SDS011;10605;52.968;8.844;2023-07-31T13:05:46;0.60;;;0.60;;
20890;SDS011;10605;52.968;8.844;2023-07-31T13:08:11;1.00;;;0.80;;
20890;SDS011;10605;52.968;8.844;2023-07-31T13:10:37;1.90;;;0.77;;
20890;SDS011;10605;52.968;8.844;2023-07-31T13:13:03;2.92;;;1.08;;
20890;SDS011;10605;52.968;8.844;2023-07-31T13:15:29;2.58;;;0.98;;
20890;SDS011;10605;52.968;8.844;2023-07-31T13:17:57;0.85;;;0.85;;
20890;SDS011;10605;52.968;8.844;2023-07-31T13:20:24;1.00;;;0.90;;
20890;SDS011;10605;52.968;8.844;2023-07-31T13:22:50;0.90;;;0.90;;
20890;SDS011;10605;52.968;8.844;2023-07-31T13:25:16;1.10;;;1.10;;
20890;SDS011;10605;52.968;8.844;2023-07-31T13:27:41;1.73;;;1.08;;
20890;SDS011;10605;52.968;8.844;2023-07-31T13:30:07;1.05;;;1.05;;
20890;SDS011;10605;52.968;8.844;2023-07-31T13:32:42;1.30;;;1.20;;
20890;SDS011;10605;52.968;8.844;2023-07-31T13:35:35;1.40;;;1.30;;
20890;SDS011;10605;52.968;8.844;2023-07-31T13:38:01;1.50;;;1.40;;
20890;SDS011;10605;52.968;8.844;2023-07-31T13:40:27;1.98;;;1.45;;
20890;SDS011;10605;52.968;8.844;2023-07-31T13:42:52;2.33;;;1.38;;
20890;SDS011;10605;52.968;8.844;2023-07-31T13:45:19;1.85;;;1.45;;
20890;SDS011;10605;52.968;8.844;2023-07-31T13:47:46;1.67;;;1.58;;
20890;SDS011;10605;52.968;8.844;2023-07-31T13:50:13;1.73;;;1.63;;
20890;SDS011;10605;52.968;8.844;2023-07-31T13:52:39;1.65;;;1.55;;
20890;SDS011;10605;52.968;8.844;2023-07-31T13:55:05;5.53;;;2.53;;
20890;SDS011;10605;52.968;8.844;2023-07-31T14:24:26;3.15;;;2.08;;
20890;SDS011;10605;52.968;8.844;2023-07-31T14:26:51;4.10;;;2.35;;
20890;SDS011;10605;52.968;8.844;2023-07-31T14:29:17;2.40;;;2.20;;
20890;SDS011;10605;52.968;8.844;2023-07-31T14:31:43;5.15;;;2.40;;
20890;SDS011;10605;52.968;8.844;2023-07-31T14:34:08;3.38;;;2.20;;
20890;SDS011;10605;52.968;8.844;2023-07-31T14:36:34;2.40;;;2.30;;
20890;SDS011;10605;52.968;8.844;2023-07-31T14:39:00;2.63;;;2.42;;
20890;SDS011;10605;52.968;8.844;2023-07-31T14:41:25;2.47;;;2.28;;
20890;SDS011;10605;52.968;8.844;2023-07-31T14:43:51;2.65;;;2.45;;
20890;SDS011;10605;52.968;8.844;2023-07-31T14:46:17;2.22;;;2.13;;
20890;SDS011;10605;52.968;8.844;2023-07-31T14:48:42;2.60;;;2.40;;
20890;SDS011;10605;52.968;8.844;2023-07-31T14:51:08;2.25;;;2.15;;
20890;SDS011;10605;52.968;8.844;2023-07-31T14:53:34;3.25;;;2.35;;
20890;SDS011;10605;52.968;8.844;2023-07-31T14:55:59;5.97;;;2.40;;
20890;SDS011;10605;52.968;8.844;2023-07-31T14:58:25;4.05;;;2.90;;
20890;SDS011;10605;52.968;8.844;2023-07-31T15:00:50;2.95;;;2.75;;
20890;SDS011;10605;52.968;8.844;2023-07-31T15:03:16;3.08;;;2.78;;
20890;SDS011;10605;52.968;8.844;2023-07-31T15:05:42;3.30;;;3.00;;
20890;SDS011;10605;52.968;8.844;2023-07-31T15:08:08;3.05;;;2.85;;
20890;SDS011;10605;52.968;8.844;2023-07-31T15:10:34;3.50;;;2.88;;
20890;SDS011;10605;52.968;8.844;2023-07-31T15:12:59;2.95;;;2.75;;
20890;SDS011;10605;52.968;8.844;2023-07-31T15:15:26;4.28;;;2.85;;
20890;SDS011;10605;52.968;8.844;2023-07-31T15:17:52;3.15;;;2.92;;
20890;SDS011;10605;52.968;8.844;2023-07-31T15:20:17;4.10;;;2.88;;
20890;SDS011;10605;52.968;8.844;2023-07-31T15:22:43;3.92;;;2.63;;
20890;SDS011;10605;52.968;8.844;2023-07-31T15:25:08;4.65;;;2.55;;
20890;SDS011;10605;52.968;8.844;2023-07-31T15:27:34;2.63;;;2.42;;
20890;SDS011;10605;52.968;8.844;2023-07-31T15:30:00;3.45;;;2.80;;
20890;SDS011;10605;52.968;8.844;2023-07-31T15:32:26;3.33;;;2.97;;
20890;SDS011;10605;52.968;8.844;2023-07-31T15:34:52;2.72;;;2.30;;
20890;SDS011;10605;52.968;8.844;2023-07-31T15:37:17;3.42;;;2.70;;
20890;SDS011;10605;52.968;8.844;2023-07-31T15:39:43;2.70;;;2.50;;
20890;SDS011;10605;52.968;8.844;2023-07-31T15:42:09;2.88;;;2.58;;
20890;SDS011;10605;52.968;8.844;2023-07-31T15:44:34;3.88;;;2.05;;
20890;SDS011;10605;52.968;8.844;2023-07-31T15:47:00;2.75;;;2.55;;
20890;SDS011;10605;52.968;8.844;2023-07-31T15:49:26;2.00;;;1.90;;
20890;SDS011;10605;52.968;8.844;2023-07-31T15:51:52;4.13;;;2.25;;
20890;SDS011;10605;52.968;8.844;2023-07-31T15:54:17;3.67;;;2.10;;
20890;SDS011;10605;52.968;8.844;2023-07-31T15:56:43;3.47;;;1.80;;
20890;SDS011;10605;52.968;8.844;2023-07-31T15:59:09;2.25;;;1.80;;
20890;SDS011;10605;52.968;8.844;2023-07-31T16:01:35;2.78;;;1.90;;
20890;SDS011;10605;52.968;8.844;2023-07-31T16:04:00;5.38;;;2.05;;
20890;SDS011;10605;52.968;8.844;2023-07-31T16:06:26;3.30;;;1.90;;
20890;SDS011;10605;52.968;8.844;2023-07-31T16:08:52;2.10;;;2.00;;
20890;SDS011;10605;52.968;8.844;2023-07-31T16:11:19;1.70;;;1.60;;